sensor_id;sensor_type;location;lat;lon;timestamp;temperature;humidity
73955;DHT22;62306;52.516;13.290;2023-11-19T00:00:11;5.00;99.90
73955;DHT22;62306;52.516;13.290;2023-11-19T00:02:38;5.00;99.90
73955;DHT22;62306;52.516;13.290;2023-11-19T00:05:05;5.00;99.90
73955;DHT22;62306;52.516;13.290;2023-11-19T00:07:36;5.00;99.90
73955;DHT22;62306;52.516;13.290;2023-11-19T00:10:07;5.00;99.90
73955;DHT22;62306;52.516;13.290;2023-11-19T00:12:37;5.00;99.90
73955;DHT22;62306;52.516;13.290;2023-11-19T00:15:04;5.00;99.90
73955;DHT22;62306;52.516;13.290;2023-11-19T00:17:32;5.00;99.90
73955;DHT22;62306;52.516;13.290;2023-11-19T00:19:58;5.10;99.90
73955;DHT22;62306;52.516;13.290;2023-11-19T00:22:25;5.00;99.90
73955;DHT22;62306;52.516;13.290;2023-11-19T00:24:54;5.20;99.90
73955;DHT22;62306;52.516;13.290;2023-11-19T00:27:22;5.10;99.90
73955;DHT22;62306;52.516;13.290;2023-11-19T00:29:49;5.10;99.90
73955;DHT22;62306;52.516;13.290;2023-11-19T00:32:16;5.10;99.90
73955;DHT22;62306;52.516;13.290;2023-11-19T00:34:43;5.00;99.90
73955;DHT22;62306;52.516;13.290;2023-11-19T00:37:10;5.00;99.90
73955;DHT22;62306;52.516;13.290;2023-11-19T00:39:37;5.00;99.90
73955;DHT22;62306;52.516;13.290;2023-11-19T00:42:05;5.10;99.90
73955;DHT22;62306;52.516;13.290;2023-11-19T00:44:32;5.00;99.90
73955;DHT22;62306;52.516;13.290;2023-11-19T00:46:59;5.10;99.90
73955;DHT22;62306;52.516;13.290;2023-11-19T00:49:26;5.10;99.90
73955;DHT22;62306;52.516;13.290;2023-11-19T00:51:53;5.20;99.90
73955;DHT22;62306;52.516;13.290;2023-11-19T00:54:19;5.20;99.90
73955;DHT22;62306;52.516;13.290;2023-11-19T00:56:46;5.20;99.90
73955;DHT22;62306;52.516;13.290;2023-11-19T00:59:14;5.20;99.90
73955;DHT22;62306;52.516;13.290;2023-11-19T01:01:41;5.20;99.90
73955;DHT22;62306;52.516;13.290;2023-11-19T01:04:08;5.30;99.90
73955;DHT22;62306;52.516;13.290;2023-11-19T01:06:35;5.30;99.90
73955;DHT22;62306;52.516;13.290;2023-11-19T01:09:02;5.30;99.90
73955;DHT22;62306;52.516;13.290;2023-11-19T01:11:29;5.30;99.90
73955;DHT22;62306;52.516;13.290;2023-11-19T01:13:56;5.30;99.90
73955;DHT22;62306;52.516;13.290;2023-11-19T01:16:24;5.30;99.90
73955;DHT22;62306;52.516;13.290;2023-11-19T01:18:52;5.30;99.90
73955;DHT22;62306;52.516;13.290;2023-11-19T01:21:19;5.30;99.90
73955;DHT22;62306;52.516;13.290;2023-11-19T01:23:47;5.30;99.90
73955;DHT22;62306;52.516;13.290;2023-11-19T01:26:14;5.40;99.90
73955;DHT22;62306;52.516;13.290;2023-11-19T01:28:41;5.30;99.90
73955;DHT22;62306;52.516;13.290;2023-11-19T01:31:10;5.30;99.90
73955;DHT22;62306;52.516;13.290;2023-11-19T01:33:39;5.20;99.90
73955;DHT22;62306;52.516;13.290;2023-11-19T01:36:07;5.20;99.90
73955;DHT22;62306;52.516;13.290;2023-11-19T01:38:34;5.20;99.90
73955;DHT22;62306;52.516;13.290;2023-11-19T01:41:02;5.30;99.90
73955;DHT22;62306;52.516;13.290;2023-11-19T01:43:34;5.20;99.90
73955;DHT22;62306;52.516;13.290;2023-11-19T01:46:01;5.30;99.90
73955;DHT22;62306;52.516;13.290;2023-11-19T01:48:28;5.30;99.90
73955;DHT22;62306;52.516;13.290;2023-11-19T01:50:56;5.30;99.90
73955;DHT22;62306;52.516;13.290;2023-11-19T01:53:24;5.20;99.90
73955;DHT22;62306;52.516;13.290;2023-11-19T01:55:51;5.30;99.90
73955;DHT22;62306;52.516;13.290;2023-11-19T01:58:19;5.30;99.90
73955;DHT22;62306;52.516;13.290;2023-11-19T02:00:46;5.30;99.90
73955;DHT22;62306;52.516;13.290;2023-11-19T02:03:14;5.30;99.90
73955;DHT22;62306;52.516;13.290;2023-11-19T02:05:41;5.30;99.90
73955;DHT22;62306;52.516;13.290;2023-11-19T02:08:09;5.30;99.90
73955;DHT22;62306;52.516;13.290;2023-11-19T02:10:39;5.20;99.90
73955;DHT22;62306;52.516;13.290;2023-11-19T02:13:06;5.10;99.90
73955;DHT22;62306;52.516;13.290;2023-11-19T02:15:33;5.20;99.90
73955;DHT22;62306;52.516;13.290;2023-11-19T02:18:18;5.20;99.90
73955;DHT22;62306;52.516;13.290;2023-11-19T02:20:45;5.10;99.90
73955;DHT22;62306;52.516;13.290;2023-11-19T02:23:14;5.10;99.90
73955;DHT22;62306;52.516;13.290;2023-11-19T02:25:41;5.20;99.90
73955;DHT22;62306;52.516;13.290;2023-11-19T02:28:10;5.20;99.90
73955;DHT22;62306;52.516;13.290;2023-11-19T02:30:38;5.20;99.90
73955;DHT22;62306;52.516;13.290;2023-11-19T02:33:05;5.20;99.90
73955;DHT22;62306;52.516;13.290;2023-11-19T02:35:32;5.20;99.90
73955;DHT22;62306;52.516;13.290;2023-11-19T02:38:00;5.20;99.90
73955;DHT22;62306;52.516;13.290;2023-11-19T02:40:29;5.20;99.90
73955;DHT22;62306;52.516;13.290;2023-11-19T02:42:56;5.20;99.90
73955;DHT22;62306;52.516;13.290;2023-11-19T02:45:25;5.30;99.90
73955;DHT22;62306;52.516;13.290;2023-11-19T02:47:53;5.20;99.90
73955;DHT22;62306;52.516;13.290;2023-11-19T02:50:20;5.30;99.90
73955;DHT22;62306;52.516;13.290;2023-11-19T02:52:53;5.20;99.90
73955;DHT22;62306;52.516;13.290;2023-11-19T02:55:22;5.30;99.90
73955;DHT22;62306;52.516;13.290;2023-11-19T02:57:50;5.40;99.90
73955;DHT22;62306;52.516;13.290;2023-11-19T03:00:19;5.30;99.90
73955;DHT22;62306;52.516;13.290;2023-11-19T03:02:51;5.40;99.90
73955;DHT22;62306;52.516;13.290;2023-11-19T03:05:25;5.40;99.90
73955;DHT22;62306;52.516;13.290;2023-11-19T03:07:52;5.40;99.90
73955;DHT22;62306;52.516;13.290;2023-11-19T03:10:19;5.40;99.90
73955;DHT22;62306;52.516;13.290;2023-11-19T03:12:46;5.40;99.90
73955;DHT22;62306;52.516;13.290;2023-11-19T03:15:12;5.50;99.90
73955;DHT22;62306;52.516;13.290;2023-11-19T03:17:40;5.50;99.90
73955;DHT22;62306;52.516;13.290;2023-11-19T03:20:11;5.50;99.90
73955;DHT22;62306;52.516;13.290;2023-11-19T03:22:41;5.50;99.90
73955;DHT22;62306;52.516;13.290;2023-11-19T03:25:08;5.50;99.90
73955;DHT22;62306;52.516;13.290;2023-11-19T03:27:35;5.60;99.90
73955;DHT22;62306;52.516;13.290;2023-11-19T03:30:02;5.50;99.90
73955;DHT22;62306;52.516;13.290;2023-11-19T03:32:30;5.50;99.90
73955;DHT22;62306;52.516;13.290;2023-11-19T03:34:58;5.40;99.90
73955;DHT22;62306;52.516;13.290;2023-11-19T03:37:27;5.40;99.90
73955;DHT22;62306;52.516;13.290;2023-11-19T03:39:54;5.30;99.90
73955;DHT22;62306;52.516;13.290;2023-11-19T03:42:25;5.30;99.90
73955;DHT22;62306;52.516;13.290;2023-11-19T03:44:52;5.10;99.90
73955;DHT22;62306;52.516;13.290;2023-11-19T03:47:19;5.00;99.90
73955;DHT22;62306;52.516;13.290;2023-11-19T03:49:48;5.10;99.90
73955;DHT22;62306;52.516;13.290;2023-11-19T03:52:15;5.20;99.90
73955;DHT22;62306;52.516;13.290;2023-11-19T03:54:44;5.10;99.90
73955;DHT22;62306;52.516;13.290;2023-11-19T03:57:11;5.10;99.90
73955;DHT22;62306;52.516;13.290;2023-11-19T03:59:39;5.00;99.90
73955;DHT22;62306;52.516;13.290;2023-11-19T04:02:06;5.00;99.90
73955;DHT22;62306;52.516;13.290;2023-11-19T04:04:32;4.90;99.90
73955;DHT22;62306;52.516;13.290;2023-11-19T04:07:00;4.90;99.90
73955;DHT22;62306;52.516;13.290;2023-11-19T04:09:26;4.90;99.90
73955;DHT22;62306;52.516;13.290;2023-11-19T04:11:54;4.90;99.90
73955;DHT22;62306;52.516;13.290;2023-11-19T04:14:21;4.90;99.90
73955;DHT22;62306;52.516;13.290;2023-11-19T04:16:48;4.90;99.90
73955;DHT22;62306;52.516;13.290;2023-11-19T04:19:16;4.90;99.90
73955;DHT22;62306;52.516;13.290;2023-11-19T04:21:43;4.90;99.90
73955;DHT22;62306;52.516;13.290;2023-11-19T04:24:10;4.90;99.90
73955;DHT22;62306;52.516;13.290;2023-11-19T04:26:40;4.90;99.90
73955;DHT22;62306;52.516;13.290;2023-11-19T04:29:10;4.90;99.90
73955;DHT22;62306;52.516;13.290;2023-11-19T04:31:38;5.00;99.90
73955;DHT22;62306;52.516;13.290;2023-11-19T04:34:05;5.00;99.90
73955;DHT22;62306;52.516;13.290;2023-11-19T04:36:33;5.10;99.90
73955;DHT22;62306;52.516;13.290;2023-11-19T04:39:00;5.10;99.90
73955;DHT22;62306;52.516;13.290;2023-11-19T04:41:27;5.00;99.90
73955;DHT22;62306;52.516;13.290;2023-11-19T04:43:54;5.10;99.90
73955;DHT22;62306;52.516;13.290;2023-11-19T04:46:22;5.00;99.90
73955;DHT22;62306;52.516;13.290;2023-11-19T04:48:50;5.00;99.90
73955;DHT22;62306;52.516;13.290;2023-11-19T04:51:17;5.00;99.90
73955;DHT22;62306;52.516;13.290;2023-11-19T04:53:44;5.00;99.90
73955;DHT22;62306;52.516;13.290;2023-11-19T04:56:11;5.00;99.90
73955;DHT22;62306;52.516;13.290;2023-11-19T04:58:39;5.00;99.90
73955;DHT22;62306;52.516;13.290;2023-11-19T05:01:06;5.00;99.90
73955;DHT22;62306;52.516;13.290;2023-11-19T05:03:41;5.00;99.90
73955;DHT22;62306;52.516;13.290;2023-11-19T05:06:08;5.00;99.90
73955;DHT22;62306;52.516;13.290;2023-11-19T05:08:35;5.00;99.90
73955;DHT22;62306;52.516;13.290;2023-11-19T05:11:03;5.00;99.90
73955;DHT22;62306;52.516;13.290;2023-11-19T05:13:31;5.00;99.90
73955;DHT22;62306;52.516;13.290;2023-11-19T05:15:58;5.00;99.90
73955;DHT22;62306;52.516;13.290;2023-11-19T05:18:25;5.00;99.90
73955;DHT22;62306;52.516;13.290;2023-11-19T05:20:53;5.00;99.90
73955;DHT22;62306;52.516;13.290;2023-11-19T05:23:20;5.00;99.90
73955;DHT22;62306;52.516;13.290;2023-11-19T05:25:47;5.00;99.90
73955;DHT22;62306;52.516;13.290;2023-11-19T05:28:14;5.00;99.90
73955;DHT22;62306;52.516;13.290;2023-11-19T05:30:41;5.00;99.90
73955;DHT22;62306;52.516;13.290;2023-11-19T05:33:07;5.00;99.90
73955;DHT22;62306;52.516;13.290;2023-11-19T05:35:35;5.00;99.90
73955;DHT22;62306;52.516;13.290;2023-11-19T05:38:03;5.00;99.90
73955;DHT22;62306;52.516;13.290;2023-11-19T05:40:31;5.00;99.90
73955;DHT22;62306;52.516;13.290;2023-11-19T05:42:58;5.00;99.90
73955;DHT22;62306;52.516;13.290;2023-11-19T05:45:25;5.10;99.90
73955;DHT22;62306;52.516;13.290;2023-11-19T05:47:52;5.10;99.90
73955;DHT22;62306;52.516;13.290;2023-11-19T05:50:19;5.10;99.90
73955;DHT22;62306;52.516;13.290;2023-11-19T05:52:46;5.10;99.90
73955;DHT22;62306;52.516;13.290;2023-11-19T05:55:15;5.10;99.90
73955;DHT22;62306;52.516;13.290;2023-11-19T05:57:41;5.10;99.90
73955;DHT22;62306;52.516;13.290;2023-11-19T06:00:09;5.10;99.90
73955;DHT22;62306;52.516;13.290;2023-11-19T06:02:38;5.10;99.90
73955;DHT22;62306;52.516;13.290;2023-11-19T06:05:06;5.10;99.90
73955;DHT22;62306;52.516;13.290;2023-11-19T06:07:33;5.10;99.90
73955;DHT22;62306;52.516;13.290;2023-11-19T06:10:01;5.10;99.90
73955;DHT22;62306;52.516;13.290;2023-11-19T06:12:29;5.20;99.90
73955;DHT22;62306;52.516;13.290;2023-11-19T06:14:59;5.20;99.90
73955;DHT22;62306;52.516;13.290;2023-11-19T06:17:26;5.20;99.90
73955;DHT22;62306;52.516;13.290;2023-11-19T06:19:53;5.30;99.90
73955;DHT22;62306;52.516;13.290;2023-11-19T06:22:20;5.30;99.90
73955;DHT22;62306;52.516;13.290;2023-11-19T06:24:47;5.30;99.90
73955;DHT22;62306;52.516;13.290;2023-11-19T06:27:13;5.20;99.90
73955;DHT22;62306;52.516;13.290;2023-11-19T06:29:42;5.30;99.90
73955;DHT22;62306;52.516;13.290;2023-11-19T06:32:08;5.30;99.90
73955;DHT22;62306;52.516;13.290;2023-11-19T06:34:35;5.30;99.90
73955;DHT22;62306;52.516;13.290;2023-11-19T06:37:02;5.30;99.90
73955;DHT22;62306;52.516;13.290;2023-11-19T06:39:29;5.30;99.90
73955;DHT22;62306;52.516;13.290;2023-11-19T06:41:56;5.30;99.90
73955;DHT22;62306;52.516;13.290;2023-11-19T06:44:23;5.20;99.90
73955;DHT22;62306;52.516;13.290;2023-11-19T06:46:52;5.30;99.90
73955;DHT22;62306;52.516;13.290;2023-11-19T06:49:19;5.30;99.90
73955;DHT22;62306;52.516;13.290;2023-11-19T06:51:47;5.30;99.90
73955;DHT22;62306;52.516;13.290;2023-11-19T06:54:14;5.30;99.90
73955;DHT22;62306;52.516;13.290;2023-11-19T06:56:41;5.40;99.90
73955;DHT22;62306;52.516;13.290;2023-11-19T06:59:09;5.30;99.90
73955;DHT22;62306;52.516;13.290;2023-11-19T07:01:36;5.40;99.90
73955;DHT22;62306;52.516;13.290;2023-11-19T07:04:05;5.40;99.90
73955;DHT22;62306;52.516;13.290;2023-11-19T07:06:35;5.50;99.90
73955;DHT22;62306;52.516;13.290;2023-11-19T07:09:03;5.50;99.90
73955;DHT22;62306;52.516;13.290;2023-11-19T07:11:35;5.50;99.90
73955;DHT22;62306;52.516;13.290;2023-11-19T07:14:03;5.50;99.90
73955;DHT22;62306;52.516;13.290;2023-11-19T07:16:30;5.50;99.90
73955;DHT22;62306;52.516;13.290;2023-11-19T07:18:57;5.50;99.90
73955;DHT22;62306;52.516;13.290;2023-11-19T07:21:27;5.60;99.90
73955;DHT22;62306;52.516;13.290;2023-11-19T07:23:54;5.60;99.90
73955;DHT22;62306;52.516;13.290;2023-11-19T07:26:21;5.50;99.90
73955;DHT22;62306;52.516;13.290;2023-11-19T07:28:48;5.60;99.90
73955;DHT22;62306;52.516;13.290;2023-11-19T07:31:16;5.60;99.90
73955;DHT22;62306;52.516;13.290;2023-11-19T07:33:44;5.70;99.90
73955;DHT22;62306;52.516;13.290;2023-11-19T07:36:11;5.70;99.90
73955;DHT22;62306;52.516;13.290;2023-11-19T07:38:40;5.70;99.90
73955;DHT22;62306;52.516;13.290;2023-11-19T07:41:07;5.70;99.90
73955;DHT22;62306;52.516;13.290;2023-11-19T07:43:35;5.80;99.90
73955;DHT22;62306;52.516;13.290;2023-11-19T07:46:02;5.80;99.90
73955;DHT22;62306;52.516;13.290;2023-11-19T07:48:30;5.90;99.90
73955;DHT22;62306;52.516;13.290;2023-11-19T07:50:57;5.90;99.90
73955;DHT22;62306;52.516;13.290;2023-11-19T07:53:24;6.00;99.90
73955;DHT22;62306;52.516;13.290;2023-11-19T07:55:52;6.00;99.90
73955;DHT22;62306;52.516;13.290;2023-11-19T07:58:19;6.00;99.90
73955;DHT22;62306;52.516;13.290;2023-11-19T08:00:46;6.10;99.90
73955;DHT22;62306;52.516;13.290;2023-11-19T08:03:13;6.10;99.90
73955;DHT22;62306;52.516;13.290;2023-11-19T08:05:40;6.20;99.90
73955;DHT22;62306;52.516;13.290;2023-11-19T08:08:07;6.20;99.90
73955;DHT22;62306;52.516;13.290;2023-11-19T08:10:35;6.20;99.90
73955;DHT22;62306;52.516;13.290;2023-11-19T08:13:03;6.20;99.90
73955;DHT22;62306;52.516;13.290;2023-11-19T08:15:30;6.20;99.90
73955;DHT22;62306;52.516;13.290;2023-11-19T08:17:56;6.20;99.90
73955;DHT22;62306;52.516;13.290;2023-11-19T08:20:23;6.30;99.90
73955;DHT22;62306;52.516;13.290;2023-11-19T08:22:50;6.40;99.90
73955;DHT22;62306;52.516;13.290;2023-11-19T08:25:17;6.50;99.90
73955;DHT22;62306;52.516;13.290;2023-11-19T08:27:44;6.60;99.90
73955;DHT22;62306;52.516;13.290;2023-11-19T08:30:13;6.60;99.90
73955;DHT22;62306;52.516;13.290;2023-11-19T08:32:40;6.60;99.90
73955;DHT22;62306;52.516;13.290;2023-11-19T08:35:07;6.70;99.90
73955;DHT22;62306;52.516;13.290;2023-11-19T08:37:35;6.70;99.90
73955;DHT22;62306;52.516;13.290;2023-11-19T08:40:02;6.70;99.90
73955;DHT22;62306;52.516;13.290;2023-11-19T08:42:29;6.80;99.90
73955;DHT22;62306;52.516;13.290;2023-11-19T08:44:56;6.80;99.90
73955;DHT22;62306;52.516;13.290;2023-11-19T08:47:24;6.90;99.90
73955;DHT22;62306;52.516;13.290;2023-11-19T08:49:51;7.00;99.90
73955;DHT22;62306;52.516;13.290;2023-11-19T08:52:19;7.20;99.90
73955;DHT22;62306;52.516;13.290;2023-11-19T08:54:45;7.20;99.90
73955;DHT22;62306;52.516;13.290;2023-11-19T08:57:12;7.20;99.90
73955;DHT22;62306;52.516;13.290;2023-11-19T08:59:39;7.20;99.90
73955;DHT22;62306;52.516;13.290;2023-11-19T09:02:06;7.10;99.90
73955;DHT22;62306;52.516;13.290;2023-11-19T09:04:35;7.20;99.90
73955;DHT22;62306;52.516;13.290;2023-11-19T09:07:01;7.30;99.90
73955;DHT22;62306;52.516;13.290;2023-11-19T09:09:29;7.30;99.90
73955;DHT22;62306;52.516;13.290;2023-11-19T09:11:56;7.30;99.90
73955;DHT22;62306;52.516;13.290;2023-11-19T09:14:23;7.40;99.90
73955;DHT22;62306;52.516;13.290;2023-11-19T09:16:51;7.50;99.90
73955;DHT22;62306;52.516;13.290;2023-11-19T09:19:18;7.50;99.90
73955;DHT22;62306;52.516;13.290;2023-11-19T09:21:46;7.60;99.90
73955;DHT22;62306;52.516;13.290;2023-11-19T09:24:13;7.80;99.90
73955;DHT22;62306;52.516;13.290;2023-11-19T09:26:40;7.90;99.90
73955;DHT22;62306;52.516;13.290;2023-11-19T09:29:07;8.00;99.90
73955;DHT22;62306;52.516;13.290;2023-11-19T09:31:34;8.10;99.90
73955;DHT22;62306;52.516;13.290;2023-11-19T09:34:01;8.40;99.90
73955;DHT22;62306;52.516;13.290;2023-11-19T09:36:28;8.50;99.90
73955;DHT22;62306;52.516;13.290;2023-11-19T09:38:56;8.40;99.90
73955;DHT22;62306;52.516;13.290;2023-11-19T09:41:23;8.50;99.90
73955;DHT22;62306;52.516;13.290;2023-11-19T09:43:51;8.40;99.90
73955;DHT22;62306;52.516;13.290;2023-11-19T09:46:19;8.50;99.90
73955;DHT22;62306;52.516;13.290;2023-11-19T09:48:46;8.60;99.90
73955;DHT22;62306;52.516;13.290;2023-11-19T09:51:13;8.80;99.90
73955;DHT22;62306;52.516;13.290;2023-11-19T09:53:40;9.00;99.90
73955;DHT22;62306;52.516;13.290;2023-11-19T09:56:09;9.00;99.90
73955;DHT22;62306;52.516;13.290;2023-11-19T09:58:37;9.10;99.90
73955;DHT22;62306;52.516;13.290;2023-11-19T10:01:04;9.20;99.90
73955;DHT22;62306;52.516;13.290;2023-11-19T10:03:33;9.30;99.90
73955;DHT22;62306;52.516;13.290;2023-11-19T10:06:04;9.40;99.90
73955;DHT22;62306;52.516;13.290;2023-11-19T10:08:33;9.30;99.90
73955;DHT22;62306;52.516;13.290;2023-11-19T10:10:59;9.20;99.90
73955;DHT22;62306;52.516;13.290;2023-11-19T10:13:28;9.20;99.90
73955;DHT22;62306;52.516;13.290;2023-11-19T10:15:56;9.20;99.90
73955;DHT22;62306;52.516;13.290;2023-11-19T10:18:25;9.10;99.90
73955;DHT22;62306;52.516;13.290;2023-11-19T10:20:52;9.20;99.90
73955;DHT22;62306;52.516;13.290;2023-11-19T10:23:21;9.30;99.90
73955;DHT22;62306;52.516;13.290;2023-11-19T10:25:48;9.30;99.90
73955;DHT22;62306;52.516;13.290;2023-11-19T10:28:15;9.40;99.90
73955;DHT22;62306;52.516;13.290;2023-11-19T10:30:44;9.60;99.90
73955;DHT22;62306;52.516;13.290;2023-11-19T10:33:12;9.80;99.90
73955;DHT22;62306;52.516;13.290;2023-11-19T10:35:52;9.90;99.90
73955;DHT22;62306;52.516;13.290;2023-11-19T10:38:19;10.20;99.90
73955;DHT22;62306;52.516;13.290;2023-11-19T10:40:46;10.70;99.90
73955;DHT22;62306;52.516;13.290;2023-11-19T10:43:13;10.80;99.90
73955;DHT22;62306;52.516;13.290;2023-11-19T10:45:40;10.90;99.90
73955;DHT22;62306;52.516;13.290;2023-11-19T10:48:09;11.00;99.90
73955;DHT22;62306;52.516;13.290;2023-11-19T10:50:37;11.10;99.90
73955;DHT22;62306;52.516;13.290;2023-11-19T10:53:05;11.20;99.90
73955;DHT22;62306;52.516;13.290;2023-11-19T10:55:34;11.30;99.90
73955;DHT22;62306;52.516;13.290;2023-11-19T10:58:02;11.30;99.90
73955;DHT22;62306;52.516;13.290;2023-11-19T11:00:34;11.20;99.90
73955;DHT22;62306;52.516;13.290;2023-11-19T11:03:01;11.10;99.90
73955;DHT22;62306;52.516;13.290;2023-11-19T11:05:32;11.00;99.90
73955;DHT22;62306;52.516;13.290;2023-11-19T11:08:01;10.90;99.90
73955;DHT22;62306;52.516;13.290;2023-11-19T11:10:31;10.80;99.90
73955;DHT22;62306;52.516;13.290;2023-11-19T11:13:03;10.80;99.90
73955;DHT22;62306;52.516;13.290;2023-11-19T11:15:30;10.70;99.90
73955;DHT22;62306;52.516;13.290;2023-11-19T11:18:01;10.70;99.90
73955;DHT22;62306;52.516;13.290;2023-11-19T11:20:31;10.70;99.90
73955;DHT22;62306;52.516;13.290;2023-11-19T11:26:22;10.80;99.90
73955;DHT22;62306;52.516;13.290;2023-11-19T11:28:56;10.90;99.90
73955;DHT22;62306;52.516;13.290;2023-11-19T11:31:31;11.00;99.90
73955;DHT22;62306;52.516;13.290;2023-11-19T11:34:28;11.10;99.90
73955;DHT22;62306;52.516;13.290;2023-11-19T11:37:07;11.30;99.90
73955;DHT22;62306;52.516;13.290;2023-11-19T11:39:37;11.40;99.90
73955;DHT22;62306;52.516;13.290;2023-11-19T11:42:33;11.60;99.90
73955;DHT22;62306;52.516;13.290;2023-11-19T11:45:00;11.80;99.90
73955;DHT22;62306;52.516;13.290;2023-11-19T11:48:04;12.00;99.90
73955;DHT22;62306;52.516;13.290;2023-11-19T11:50:32;12.20;99.90
73955;DHT22;62306;52.516;13.290;2023-11-19T11:53:16;12.30;99.90
73955;DHT22;62306;52.516;13.290;2023-11-19T11:55:57;12.30;99.90
73955;DHT22;62306;52.516;13.290;2023-11-19T11:58:32;12.30;99.90
73955;DHT22;62306;52.516;13.290;2023-11-19T12:01:02;12.30;99.90
73955;DHT22;62306;52.516;13.290;2023-11-19T12:03:31;12.10;99.90
73955;DHT22;62306;52.516;13.290;2023-11-19T12:05:59;12.00;99.90
73955;DHT22;62306;52.516;13.290;2023-11-19T12:08:28;12.00;99.90
73955;DHT22;62306;52.516;13.290;2023-11-19T12:10:57;12.00;99.90
73955;DHT22;62306;52.516;13.290;2023-11-19T12:13:26;12.00;99.90
73955;DHT22;62306;52.516;13.290;2023-11-19T12:16:08;12.00;99.90
73955;DHT22;62306;52.516;13.290;2023-11-19T12:18:35;12.00;99.90
73955;DHT22;62306;52.516;13.290;2023-11-19T12:21:02;12.00;99.90
73955;DHT22;62306;52.516;13.290;2023-11-19T12:23:32;12.00;99.90
73955;DHT22;62306;52.516;13.290;2023-11-19T12:25:59;11.90;99.90
73955;DHT22;62306;52.516;13.290;2023-11-19T12:28:26;11.90;99.90
73955;DHT22;62306;52.516;13.290;2023-11-19T12:30:54;11.90;99.90
73955;DHT22;62306;52.516;13.290;2023-11-19T12:33:35;11.80;99.90
73955;DHT22;62306;52.516;13.290;2023-11-19T12:36:04;11.70;99.90
73955;DHT22;62306;52.516;13.290;2023-11-19T12:38:32;11.60;99.90
73955;DHT22;62306;52.516;13.290;2023-11-19T12:41:06;11.60;99.90
73955;DHT22;62306;52.516;13.290;2023-11-19T12:43:33;11.50;99.90
73955;DHT22;62306;52.516;13.290;2023-11-19T12:46:01;11.40;99.90
73955;DHT22;62306;52.516;13.290;2023-11-19T12:48:28;11.40;99.90
73955;DHT22;62306;52.516;13.290;2023-11-19T12:50:56;11.50;99.90
73955;DHT22;62306;52.516;13.290;2023-11-19T12:53:24;11.50;99.90
73955;DHT22;62306;52.516;13.290;2023-11-19T12:55:53;11.50;99.90
73955;DHT22;62306;52.516;13.290;2023-11-19T12:58:31;11.50;99.90
73955;DHT22;62306;52.516;13.290;2023-11-19T13:01:02;11.50;99.90
73955;DHT22;62306;52.516;13.290;2023-11-19T13:03:29;11.40;99.90
73955;DHT22;62306;52.516;13.290;2023-11-19T13:06:01;11.30;99.90
73955;DHT22;62306;52.516;13.290;2023-11-19T13:08:35;11.30;99.90
73955;DHT22;62306;52.516;13.290;2023-11-19T13:11:05;11.30;99.90
73955;DHT22;62306;52.516;13.290;2023-11-19T13:13:33;11.30;99.90
73955;DHT22;62306;52.516;13.290;2023-11-19T13:16:04;11.30;99.90
73955;DHT22;62306;52.516;13.290;2023-11-19T13:18:32;11.40;99.90
73955;DHT22;62306;52.516;13.290;2023-11-19T13:20:58;11.40;99.90
73955;DHT22;62306;52.516;13.290;2023-11-19T13:23:25;11.40;99.90
73955;DHT22;62306;52.516;13.290;2023-11-19T13:25:52;11.40;99.90
73955;DHT22;62306;52.516;13.290;2023-11-19T13:28:20;11.30;99.90
73955;DHT22;62306;52.516;13.290;2023-11-19T13:30:48;11.30;99.90
73955;DHT22;62306;52.516;13.290;2023-11-19T13:33:15;11.30;99.90
73955;DHT22;62306;52.516;13.290;2023-11-19T13:35:41;11.30;99.90
73955;DHT22;62306;52.516;13.290;2023-11-19T13:38:08;11.40;99.90
73955;DHT22;62306;52.516;13.290;2023-11-19T13:40:36;11.40;99.90
73955;DHT22;62306;52.516;13.290;2023-11-19T13:43:04;12.20;99.90
73955;DHT22;62306;52.516;13.290;2023-11-19T13:45:32;11.50;99.90
73955;DHT22;62306;52.516;13.290;2023-11-19T13:47:59;11.40;99.90
73955;DHT22;62306;52.516;13.290;2023-11-19T13:50:26;11.50;99.90
73955;DHT22;62306;52.516;13.290;2023-11-19T13:52:54;11.40;99.90
73955;DHT22;62306;52.516;13.290;2023-11-19T13:55:21;11.50;99.90
73955;DHT22;62306;52.516;13.290;2023-11-19T13:57:48;11.50;99.90
73955;DHT22;62306;52.516;13.290;2023-11-19T14:00:16;11.40;99.90
73955;DHT22;62306;52.516;13.290;2023-11-19T14:02:46;11.40;99.90
73955;DHT22;62306;52.516;13.290;2023-11-19T14:05:14;11.40;99.90
73955;DHT22;62306;52.516;13.290;2023-11-19T14:07:43;11.40;99.90
73955;DHT22;62306;52.516;13.290;2023-11-19T14:10:11;11.40;99.90
73955;DHT22;62306;52.516;13.290;2023-11-19T14:12:38;11.50;99.90
73955;DHT22;62306;52.516;13.290;2023-11-19T14:15:05;11.50;99.90
73955;DHT22;62306;52.516;13.290;2023-11-19T14:17:32;11.50;99.90
73955;DHT22;62306;52.516;13.290;2023-11-19T14:20:00;11.40;99.90
73955;DHT22;62306;52.516;13.290;2023-11-19T14:22:28;11.40;99.90
73955;DHT22;62306;52.516;13.290;2023-11-19T14:24:56;11.40;99.90
73955;DHT22;62306;52.516;13.290;2023-11-19T14:27:22;11.40;99.90
73955;DHT22;62306;52.516;13.290;2023-11-19T14:29:49;11.30;99.90
73955;DHT22;62306;52.516;13.290;2023-11-19T14:32:16;11.20;99.90
73955;DHT22;62306;52.516;13.290;2023-11-19T14:34:43;11.30;99.90
73955;DHT22;62306;52.516;13.290;2023-11-19T14:37:12;11.20;99.90
73955;DHT22;62306;52.516;13.290;2023-11-19T14:39:38;11.20;99.90
73955;DHT22;62306;52.516;13.290;2023-11-19T14:42:05;11.20;99.90
73955;DHT22;62306;52.516;13.290;2023-11-19T14:44:32;11.20;99.90
73955;DHT22;62306;52.516;13.290;2023-11-19T14:46:59;11.20;99.90
73955;DHT22;62306;52.516;13.290;2023-11-19T14:49:27;11.20;99.90
73955;DHT22;62306;52.516;13.290;2023-11-19T14:51:54;11.20;99.90
73955;DHT22;62306;52.516;13.290;2023-11-19T14:54:22;11.20;99.90
73955;DHT22;62306;52.516;13.290;2023-11-19T14:56:50;11.10;99.90
73955;DHT22;62306;52.516;13.290;2023-11-19T14:59:17;11.10;99.90
73955;DHT22;62306;52.516;13.290;2023-11-19T15:01:45;11.60;99.90
73955;DHT22;62306;52.516;13.290;2023-11-19T15:04:12;11.10;99.90
73955;DHT22;62306;52.516;13.290;2023-11-19T15:06:38;11.20;99.90
73955;DHT22;62306;52.516;13.290;2023-11-19T15:09:05;11.10;99.90
73955;DHT22;62306;52.516;13.290;2023-11-19T15:11:34;11.10;99.90
73955;DHT22;62306;52.516;13.290;2023-11-19T15:14:01;11.10;99.90
73955;DHT22;62306;52.516;13.290;2023-11-19T15:16:28;11.10;99.90
73955;DHT22;62306;52.516;13.290;2023-11-19T15:18:58;11.10;99.90
73955;DHT22;62306;52.516;13.290;2023-11-19T15:21:25;11.10;99.90
73955;DHT22;62306;52.516;13.290;2023-11-19T15:23:52;11.00;99.90
73955;DHT22;62306;52.516;13.290;2023-11-19T15:26:19;11.00;99.90
73955;DHT22;62306;52.516;13.290;2023-11-19T15:28:47;10.90;99.90
73955;DHT22;62306;52.516;13.290;2023-11-19T15:31:14;10.90;99.90
73955;DHT22;62306;52.516;13.290;2023-11-19T15:33:42;10.90;99.90